createdAt,value
2018-07-14T00:00:31.412Z,100912.88
2018-07-14T00:02:59.770Z,100911.42
2018-07-14T00:05:28.067Z,100917.95
2018-07-14T00:07:56.354Z,100909.83
2018-07-14T00:10:24.632Z,100911.67
2018-07-14T00:12:53.125Z,100909.17
2018-07-14T00:15:21.474Z,100914.76
2018-07-14T00:17:49.762Z,100906.56
2018-07-14T00:20:18.054Z,100915.63
2018-07-14T00:22:46.323Z,100912.84
2018-07-14T00:25:14.596Z,100910.31
2018-07-14T00:27:42.892Z,100911.37
2018-07-14T00:30:11.233Z,100907.25
2018-07-14T00:32:39.518Z,100908.95
2018-07-14T00:35:07.809Z,100904.30
2018-07-14T00:37:36.086Z,100909.92
2018-07-14T00:40:04.357Z,100916.04
2018-07-14T00:42:32.636Z,100916.13
2018-07-14T00:45:00.910Z,100908.53
2018-07-14T00:47:29.181Z,100912.38
2018-07-14T00:49:57.437Z,100907.84
2018-07-14T00:52:25.698Z,100910.90
2018-07-14T00:54:54.016Z,100909.61
2018-07-14T00:57:22.295Z,100911.97
2018-07-14T00:59:50.577Z,100909.08
2018-07-14T01:02:18.880Z,100909.36
2018-07-14T01:04:47.156Z,100905.30
2018-07-14T01:07:15.423Z,100911.20
2018-07-14T01:09:43.710Z,100909.89
2018-07-14T01:12:11.959Z,100907.13
2018-07-14T01:14:40.256Z,100910.27
2018-07-14T01:17:08.557Z,100914.14
2018-07-14T01:19:37.590Z,100911.87
2018-07-14T01:22:06.052Z,100912.78
2018-07-14T01:24:34.317Z,100910.88
2018-07-14T01:27:02.629Z,100914.30
2018-07-14T01:29:30.932Z,100917.13
2018-07-14T01:31:59.216Z,100913.66
2018-07-14T01:34:27.470Z,100908.07
2018-07-14T01:36:55.738Z,100911.19
2018-07-14T01:39:24.020Z,100912.38
2018-07-14T01:41:52.351Z,100913.48
2018-07-14T01:44:20.643Z,100916.50
2018-07-14T01:46:48.949Z,100914.34
2018-07-14T01:49:17.311Z,100909.52
2018-07-14T01:51:46.567Z,100905.69
2018-07-14T01:54:14.815Z,100903.92
2018-07-14T01:56:43.099Z,100899.62
2018-07-14T01:59:11.360Z,100898.11
2018-07-14T02:01:40.331Z,100894.58
2018-07-14T02:04:08.774Z,100904.73
2018-07-14T02:06:37.034Z,100901.80
2018-07-14T02:09:05.797Z,100901.00
2018-07-14T02:11:34.104Z,100899.33
2018-07-14T02:14:02.390Z,100898.20
2018-07-14T02:16:30.640Z,100902.85
2018-07-14T02:18:58.917Z,100896.75
2018-07-14T02:21:27.187Z,100898.66
2018-07-14T02:23:55.440Z,100904.58
2018-07-14T02:26:23.711Z,100912.75
2018-07-14T02:28:51.977Z,100911.20
2018-07-14T02:31:20.265Z,100914.43
2018-07-14T02:33:48.536Z,100916.11
2018-07-14T02:36:16.812Z,100916.11
2018-07-14T02:38:45.137Z,100914.29
2018-07-14T02:41:13.375Z,100904.04
2018-07-14T02:43:41.652Z,100913.88
2018-07-14T02:46:09.990Z,100919.80
2018-07-14T02:48:38.267Z,100919.87
2018-07-14T02:51:06.619Z,100923.16
2018-07-14T02:53:34.893Z,100918.25
2018-07-14T02:56:03.156Z,100915.23
2018-07-14T02:58:31.828Z,100914.56
2018-07-14T03:01:00.148Z,100914.13
2018-07-14T03:03:29.005Z,100919.61
2018-07-14T03:05:57.261Z,100919.48
2018-07-14T03:08:25.552Z,100914.25
2018-07-14T03:10:53.879Z,100916.37
2018-07-14T03:13:22.142Z,100916.59
2018-07-14T03:15:50.414Z,100918.59
2018-07-14T03:18:18.741Z,100916.52
2018-07-14T03:20:47.410Z,100920.92
2018-07-14T03:23:15.679Z,100916.02
2018-07-14T03:25:43.953Z,100910.78
2018-07-14T03:28:12.214Z,100913.41
2018-07-14T03:30:40.457Z,100917.21
2018-07-14T03:33:08.814Z,100917.98
2018-07-14T03:35:37.069Z,100914.52
2018-07-14T03:38:05.445Z,100922.08
2018-07-14T03:40:33.721Z,100916.13
2018-07-14T03:43:01.978Z,100923.83
2018-07-14T03:45:30.228Z,100917.88
2018-07-14T03:47:58.494Z,100925.32
2018-07-14T03:50:26.780Z,100918.59
2018-07-14T03:52:55.153Z,100919.76
2018-07-14T03:55:23.407Z,100918.84
2018-07-14T03:57:52.388Z,100918.02
2018-07-14T04:00:20.637Z,100918.78
2018-07-14T04:02:48.924Z,100924.52
2018-07-14T04:05:17.226Z,100920.26
2018-07-14T04:07:45.532Z,100918.78
2018-07-14T04:10:13.869Z,100916.77
2018-07-14T04:12:42.160Z,100918.27
2018-07-14T04:15:10.481Z,100923.23
2018-07-14T04:17:38.790Z,100919.02
2018-07-14T04:20:07.190Z,100919.36
2018-07-14T04:22:35.466Z,100919.73
2018-07-14T04:25:03.786Z,100933.82
2018-07-14T04:27:32.184Z,100930.52
2018-07-14T04:30:00.473Z,100931.72
2018-07-14T04:32:28.741Z,100926.80
2018-07-14T04:34:57.050Z,100923.38
2018-07-14T04:37:25.330Z,100934.62
2018-07-14T04:39:53.651Z,100939.52
2018-07-14T04:42:22.022Z,100937.21
2018-07-14T04:44:50.286Z,100937.93
2018-07-14T04:47:18.603Z,100933.25
2018-07-14T04:49:46.952Z,100934.16
2018-07-14T04:52:15.244Z,100931.01
2018-07-14T04:54:43.574Z,100929.27
2018-07-14T04:57:11.844Z,100932.67
2018-07-14T04:59:40.149Z,100934.75
2018-07-14T05:02:08.430Z,100942.81
2018-07-14T05:04:36.732Z,100945.86
2018-07-14T05:07:05.151Z,100944.50
2018-07-14T05:09:33.478Z,100952.40
2018-07-14T05:12:01.978Z,100950.31
2018-07-14T05:14:30.322Z,100944.44
2018-07-14T05:16:59.307Z,100946.84
2018-07-14T05:19:27.640Z,100949.48
2018-07-14T05:21:55.918Z,100936.36
2018-07-14T05:24:24.209Z,100933.06
2018-07-14T05:26:52.514Z,100931.77
2018-07-14T05:29:20.815Z,100928.34
2018-07-14T05:31:49.110Z,100926.18
2018-07-14T05:34:17.383Z,100921.59
2018-07-14T05:36:45.724Z,100913.45
2018-07-14T05:39:14.020Z,100920.23
2018-07-14T05:41:42.344Z,100925.27
2018-07-14T05:44:10.705Z,100932.33
2018-07-14T05:46:38.910Z,100934.01
2018-07-14T05:49:07.371Z,100940.60
2018-07-14T05:51:35.635Z,100944.05
2018-07-14T05:54:04.035Z,100944.47
2018-07-14T05:56:32.371Z,100951.77
2018-07-14T05:59:00.786Z,100943.19
2018-07-14T06:01:29.037Z,100955.75
2018-07-14T06:03:57.290Z,100963.53
2018-07-14T06:06:25.624Z,100955.89
2018-07-14T06:08:53.956Z,100958.27
2018-07-14T06:13:50.074Z,100959.22
2018-07-14T06:16:18.649Z,100956.23
2018-07-14T06:18:46.974Z,100950.34
2018-07-14T06:21:15.337Z,100954.12
2018-07-14T06:23:43.648Z,100940.39
2018-07-14T06:26:11.979Z,100950.30
2018-07-14T06:28:40.275Z,100949.03
2018-07-14T06:31:08.567Z,100956.91
2018-07-14T06:33:36.878Z,100956.31
2018-07-14T06:36:06.661Z,100954.05
2018-07-14T06:38:35.011Z,100956.50
2018-07-14T06:41:04.305Z,100958.27
2018-07-14T06:43:32.547Z,100954.34
2018-07-14T06:46:01.203Z,100961.23
2018-07-14T06:48:29.540Z,100969.20
2018-07-14T06:51:04.609Z,100965.97
2018-07-14T06:53:32.917Z,100967.12
2018-07-14T06:56:01.189Z,100960.08
2018-07-14T06:58:29.457Z,100960.13
2018-07-14T07:00:57.713Z,100951.44
2018-07-14T07:03:26.154Z,100961.68
2018-07-14T07:05:54.375Z,100953.49
2018-07-14T07:08:22.699Z,100964.98
2018-07-14T07:10:51.176Z,100958.77
2018-07-14T07:13:29.568Z,100951.95
2018-07-14T07:15:57.937Z,100958.64
2018-07-14T07:18:26.217Z,100957.27
2018-07-14T07:20:54.639Z,100953.25
2018-07-14T07:23:22.912Z,100961.24
2018-07-14T07:25:51.246Z,100959.11
2018-07-14T07:28:19.502Z,100958.63
2018-07-14T07:30:47.782Z,100959.74
2018-07-14T07:33:16.060Z,100963.30
2018-07-14T07:35:44.316Z,100963.88
2018-07-14T07:38:12.572Z,100963.84
2018-07-14T07:40:41.074Z,100963.56
2018-07-14T07:43:09.676Z,100967.97
2018-07-14T07:45:37.953Z,100973.72
2018-07-14T07:48:06.331Z,100966.38
2018-07-14T07:50:34.653Z,100961.45
2018-07-14T07:53:02.912Z,100965.55
2018-07-14T07:55:31.269Z,100965.50
2018-07-14T07:57:59.568Z,100963.63
2018-07-14T08:00:27.872Z,100959.85
2018-07-14T08:02:56.201Z,100962.34
2018-07-14T08:05:24.505Z,100963.75
2018-07-14T08:07:53.617Z,100962.39
2018-07-14T08:10:33.421Z,100961.59
2018-07-14T08:13:02.722Z,100961.30
2018-07-14T08:15:31.013Z,100957.47
2018-07-14T08:17:59.276Z,100953.09
2018-07-14T08:20:28.676Z,100955.28
2018-07-14T08:22:57.934Z,100948.71
2018-07-14T08:25:30.082Z,100950.39
2018-07-14T08:27:58.453Z,100943.02
2018-07-14T08:30:27.429Z,100944.40
2018-07-14T08:32:55.708Z,100945.48
2018-07-14T08:35:24.045Z,100943.02
2018-07-14T08:37:52.331Z,100942.45
2018-07-14T08:40:24.798Z,100942.72
2018-07-14T08:42:54.139Z,100943.81
2018-07-14T08:45:22.575Z,100942.45
2018-07-14T08:47:50.965Z,100938.34
2018-07-14T08:50:19.241Z,100936.44
2018-07-14T08:52:47.574Z,100939.72
2018-07-14T08:55:15.911Z,100943.78
2018-07-14T08:57:45.233Z,100941.55
2018-07-14T09:00:13.959Z,100939.67
2018-07-14T09:02:42.242Z,100940.47
2018-07-14T09:05:11.108Z,100934.70
2018-07-14T09:07:39.487Z,100940.14
2018-07-14T09:10:07.831Z,100933.80
2018-07-14T09:12:36.165Z,100933.83
2018-07-14T09:15:05.361Z,100933.78
2018-07-14T09:17:33.610Z,100929.38
2018-07-14T09:20:01.786Z,100924.19
2018-07-14T09:22:29.982Z,100924.09
2018-07-14T09:27:39.076Z,100918.65
2018-07-14T09:30:07.363Z,100913.37
2018-07-14T09:32:35.747Z,100913.38
2018-07-14T09:35:04.775Z,100911.95
2018-07-14T09:37:33.018Z,100911.87
2018-07-14T09:40:15.642Z,100909.44
2018-07-14T09:42:44.046Z,100910.70
2018-07-14T09:45:12.316Z,100901.87
2018-07-14T09:47:40.631Z,100895.56
2018-07-14T09:50:08.878Z,100899.13
2018-07-14T09:52:37.249Z,100898.21
2018-07-14T09:55:05.648Z,100890.05
2018-07-14T09:57:33.968Z,100891.28
2018-07-14T10:00:04.020Z,100887.89
2018-07-14T10:02:32.341Z,100882.67
2018-07-14T10:05:00.658Z,100883.89
2018-07-14T10:07:30.081Z,100893.43
2018-07-14T10:10:09.922Z,100884.33
2018-07-14T10:12:38.276Z,100881.86
2018-07-14T10:15:06.806Z,100880.48
2018-07-14T10:17:35.210Z,100885.36
2018-07-14T10:20:03.525Z,100878.00
2018-07-14T10:22:31.789Z,100875.73
2018-07-14T10:25:00.079Z,100877.58
2018-07-14T10:27:28.399Z,100874.23
2018-07-14T10:29:56.694Z,100864.69
2018-07-14T10:32:25.648Z,100873.94
2018-07-14T10:35:02.643Z,100865.47
2018-07-14T10:37:30.920Z,100866.67
2018-07-14T10:39:59.264Z,100868.72
2018-07-14T10:42:28.105Z,100863.72
2018-07-14T10:44:56.578Z,100861.83
2018-07-14T10:47:25.493Z,100854.57
2018-07-14T10:50:00.503Z,100850.39
2018-07-14T10:52:28.775Z,100846.67
2018-07-14T10:54:57.053Z,100839.53
2018-07-14T10:57:25.374Z,100845.25
2018-07-14T10:59:53.686Z,100843.41
2018-07-14T11:02:21.977Z,100836.89
2018-07-14T11:04:50.270Z,100838.01
2018-07-14T11:07:18.564Z,100833.42
2018-07-14T11:09:47.229Z,100832.80
2018-07-14T11:12:15.640Z,100822.22
2018-07-14T11:14:44.502Z,100815.93
2018-07-14T11:17:12.813Z,100817.34
2018-07-14T11:19:41.118Z,100812.16
2018-07-14T11:22:09.442Z,100801.97
2018-07-14T11:24:37.707Z,100808.79
2018-07-14T11:27:06.047Z,100811.23
2018-07-14T11:29:34.370Z,100809.84
2018-07-14T11:32:02.659Z,100803.47
2018-07-14T11:34:32.179Z,100808.12
2018-07-14T11:37:00.446Z,100796.39
2018-07-14T11:39:29.555Z,100794.58
2018-07-14T11:41:57.922Z,100792.59
2018-07-14T11:44:27.695Z,100786.66
2018-07-14T11:46:55.973Z,100781.12
2018-07-14T11:49:24.295Z,100781.84
2018-07-14T11:51:52.572Z,100778.31
2018-07-14T11:54:21.143Z,100775.16
2018-07-14T11:56:50.436Z,100771.27
2018-07-14T11:59:18.692Z,100773.31
2018-07-14T12:01:47.636Z,100767.69
2018-07-14T12:04:16.422Z,100768.08
2018-07-14T12:06:44.877Z,100769.20
2018-07-14T12:09:16.704Z,100772.72
2018-07-14T12:11:45.021Z,100765.36
2018-07-14T12:14:15.052Z,100757.36
2018-07-14T12:16:43.324Z,100756.73
2018-07-14T12:19:11.578Z,100758.70
2018-07-14T12:21:39.833Z,100752.52
2018-07-14T12:24:10.847Z,100757.24
2018-07-14T12:26:40.765Z,100757.70
2018-07-14T12:29:08.947Z,100750.94
2018-07-14T12:31:37.210Z,100751.34
2018-07-14T12:34:05.773Z,100745.06
2018-07-14T12:36:34.029Z,100746.36
2018-07-14T12:39:02.364Z,100741.02
2018-07-14T12:41:30.761Z,100735.78
2018-07-14T12:43:59.035Z,100734.96
2018-07-14T12:46:28.170Z,100731.53
2018-07-14T12:48:56.557Z,100723.16
2018-07-14T12:51:24.929Z,100721.18
2018-07-14T12:53:53.234Z,100719.11
2018-07-14T12:56:21.550Z,100726.14
2018-07-14T12:58:50.410Z,100716.30
2018-07-14T13:01:18.744Z,100720.62
2018-07-14T13:03:47.095Z,100715.11
2018-07-14T13:06:15.520Z,100712.04
2018-07-14T13:08:43.797Z,100710.47
2018-07-14T13:11:12.173Z,100699.55
2018-07-14T13:13:40.922Z,100699.63
2018-07-14T13:16:09.203Z,100699.39
2018-07-14T13:18:37.496Z,100695.83
2018-07-14T13:21:05.795Z,100692.57
2018-07-14T13:23:34.090Z,100682.48
2018-07-14T13:26:02.360Z,100680.83
2018-07-14T13:28:30.729Z,100678.92
2018-07-14T13:30:58.984Z,100677.55
2018-07-14T13:33:27.322Z,100680.04
2018-07-14T13:35:56.654Z,100678.72
2018-07-14T13:38:26.287Z,100684.02
2018-07-14T13:40:54.639Z,100678.10
2018-07-14T13:43:23.716Z,100678.48
2018-07-14T13:45:52.006Z,100677.77
2018-07-14T13:48:20.283Z,100671.48
2018-07-14T13:50:48.595Z,100675.88
2018-07-14T13:53:16.919Z,100676.16
2018-07-14T13:55:45.163Z,100671.75
2018-07-14T13:58:13.448Z,100667.61
2018-07-14T14:00:41.747Z,100660.94
2018-07-14T14:03:10.018Z,100648.46
2018-07-14T14:05:38.269Z,100649.58
2018-07-14T14:08:06.574Z,100651.39
2018-07-14T14:10:34.867Z,100643.94
2018-07-14T14:13:03.182Z,100649.07
2018-07-14T14:15:32.321Z,100645.25
2018-07-14T14:18:00.602Z,100639.45
2018-07-14T14:20:28.893Z,100645.64
2018-07-14T14:22:57.210Z,100637.31
2018-07-14T14:25:25.504Z,100634.11
2018-07-14T14:27:53.743Z,100635.21
2018-07-14T14:30:22.012Z,100632.69
2018-07-14T14:32:50.314Z,100631.56
2018-07-14T14:35:18.557Z,100628.45
2018-07-14T14:37:47.504Z,100625.77
2018-07-14T14:40:15.768Z,100621.25
2018-07-14T14:42:44.470Z,100623.44
2018-07-14T14:45:12.769Z,100623.80
2018-07-14T14:47:41.056Z,100619.37
2018-07-14T14:50:09.313Z,100620.66
2018-07-14T14:52:37.600Z,100615.30
2018-07-14T14:55:05.965Z,100616.87
2018-07-14T14:57:40.245Z,100620.61
2018-07-14T15:00:10.629Z,100605.30
2018-07-14T15:02:41.000Z,100608.63
2018-07-14T15:05:12.564Z,100604.33
2018-07-14T15:07:41.211Z,100607.50
2018-07-14T15:10:09.753Z,100604.51
2018-07-14T15:12:38.110Z,100600.11
2018-07-14T15:15:41.277Z,100599.47
2018-07-14T15:18:12.510Z,100598.72
2018-07-14T15:20:40.902Z,100599.78
2018-07-14T15:23:10.017Z,100593.56
2018-07-14T15:25:39.339Z,100599.09
2018-07-14T15:28:07.614Z,100598.53
2018-07-14T15:30:36.594Z,100592.63
2018-07-14T15:33:05.136Z,100595.02
2018-07-14T15:35:35.354Z,100587.20
2018-07-14T15:38:03.675Z,100592.13
2018-07-14T15:40:33.280Z,100590.39
2018-07-14T15:43:01.625Z,100594.30
2018-07-14T15:45:29.886Z,100588.31
2018-07-14T15:47:58.201Z,100586.72
2018-07-14T15:50:27.077Z,100586.53
2018-07-14T15:52:55.346Z,100586.95
2018-07-14T15:55:24.759Z,100584.19
2018-07-14T15:57:56.553Z,100584.56
2018-07-14T16:00:24.842Z,100586.02
2018-07-14T16:02:55.065Z,100580.20
2018-07-14T16:05:23.386Z,100583.23
2018-07-14T16:07:53.524Z,100581.64
2018-07-14T16:10:21.814Z,100583.23
2018-07-14T16:12:50.117Z,100580.00
2018-07-14T16:15:18.428Z,100580.89
2018-07-14T16:17:46.701Z,100575.73
2018-07-14T16:20:14.998Z,100576.53
2018-07-14T16:22:43.385Z,100573.20
2018-07-14T16:25:11.693Z,100577.83
2018-07-14T16:27:39.982Z,100573.36
2018-07-14T16:30:08.320Z,100567.53
2018-07-14T16:32:36.602Z,100566.73
2018-07-14T16:35:04.879Z,100562.82
2018-07-14T16:37:33.159Z,100562.56
2018-07-14T16:40:01.441Z,100564.66
2018-07-14T16:42:29.703Z,100561.14
2018-07-14T16:44:58.742Z,100553.73
2018-07-14T16:47:27.017Z,100550.63
2018-07-14T16:49:56.146Z,100547.82
2018-07-14T16:52:24.534Z,100548.98
2018-07-14T16:54:52.808Z,100546.17
2018-07-14T16:57:21.093Z,100541.77
2018-07-14T16:59:49.410Z,100544.59
2018-07-14T17:02:17.674Z,100541.81
2018-07-14T17:04:46.196Z,100535.37
2018-07-14T17:07:15.225Z,100532.54
2018-07-14T17:09:43.513Z,100535.95
2018-07-14T17:12:11.829Z,100529.13
2018-07-14T17:16:23.647Z,100533.50
2018-07-14T17:18:52.137Z,100525.86
2018-07-14T17:21:20.746Z,100523.00
2018-07-14T17:23:55.937Z,100524.81
2018-07-14T17:26:24.225Z,100523.84
2018-07-14T17:28:52.506Z,100522.80
2018-07-14T17:31:20.803Z,100525.32
2018-07-14T17:33:49.216Z,100525.24
2018-07-14T17:36:17.769Z,100521.30
2018-07-14T17:38:49.194Z,100532.34
2018-07-14T17:41:17.577Z,100528.87
2018-07-14T17:43:45.961Z,100524.41
2018-07-14T17:46:20.937Z,100536.52
2018-07-14T17:48:49.411Z,100530.52
2018-07-14T17:51:17.655Z,100537.02
2018-07-14T17:53:46.026Z,100530.44
2018-07-14T17:56:14.333Z,100536.16
2018-07-14T17:58:42.636Z,100542.03
2018-07-14T18:01:10.969Z,100539.53
2018-07-14T18:03:39.264Z,100539.98
2018-07-14T18:06:08.379Z,100542.03
2018-07-14T18:08:36.622Z,100537.87
2018-07-14T18:11:05.193Z,100538.98
2018-07-14T18:13:33.518Z,100536.87
2018-07-14T18:16:02.247Z,100534.50
2018-07-14T18:18:30.585Z,100533.84
2018-07-14T18:21:04.895Z,100531.58
2018-07-14T18:23:33.166Z,100534.41
2018-07-14T18:26:01.520Z,100539.48
2018-07-14T18:28:30.536Z,100535.83
2018-07-14T18:30:58.821Z,100529.02
2018-07-14T18:33:27.112Z,100534.78
2018-07-14T18:35:55.379Z,100535.23
2018-07-14T18:38:23.706Z,100537.38
2018-07-14T18:40:52.006Z,100533.74
2018-07-14T18:43:20.262Z,100540.95
2018-07-14T18:45:48.530Z,100538.41
2018-07-14T18:48:16.781Z,100546.86
2018-07-14T18:50:45.069Z,100544.67
2018-07-14T18:53:13.351Z,100544.99
2018-07-14T18:55:41.634Z,100551.34
2018-07-14T18:58:09.962Z,100554.39
2018-07-14T19:00:38.281Z,100566.53
2018-07-14T19:03:06.576Z,100567.55
2018-07-14T19:05:34.865Z,100565.89
2018-07-14T19:08:03.165Z,100555.84
2018-07-14T19:10:31.633Z,100569.26
2018-07-14T19:13:00.022Z,100562.19
2018-07-14T19:15:28.317Z,100562.82
2018-07-14T19:17:56.615Z,100564.28
2018-07-14T19:20:24.917Z,100561.53
2018-07-14T19:22:53.219Z,100565.16
2018-07-14T19:25:21.514Z,100560.92
2018-07-14T19:27:49.812Z,100565.45
2018-07-14T19:30:18.117Z,100567.10
2018-07-14T19:32:46.340Z,100568.05
2018-07-14T19:35:14.631Z,100572.74
2018-07-14T19:37:42.901Z,100579.14
2018-07-14T19:40:11.177Z,100579.22
2018-07-14T19:42:39.422Z,100582.81
2018-07-14T19:45:07.744Z,100586.32
2018-07-14T19:47:36.073Z,100582.89
2018-07-14T19:50:04.358Z,100593.27
2018-07-14T19:52:32.806Z,100593.47
2018-07-14T19:55:01.087Z,100596.11
2018-07-14T19:57:29.325Z,100602.73
2018-07-14T19:59:57.576Z,100606.23
2018-07-14T20:02:25.842Z,100606.86
2018-07-14T20:04:54.226Z,100608.72
2018-07-14T20:07:22.622Z,100611.50
2018-07-14T20:09:50.998Z,100616.20
2018-07-14T20:12:19.239Z,100618.10
2018-07-14T20:14:51.710Z,100623.56
2018-07-14T20:17:20.294Z,100628.78
2018-07-14T20:19:48.583Z,100634.75
2018-07-14T20:22:16.976Z,100631.64
2018-07-14T20:24:45.309Z,100632.29
2018-07-14T20:27:13.544Z,100636.83
2018-07-14T20:29:42.085Z,100642.95
2018-07-14T20:32:10.320Z,100640.27
2018-07-14T20:34:38.558Z,100639.81
2018-07-14T20:37:06.957Z,100639.33
2018-07-14T20:39:35.211Z,100645.64
2018-07-14T20:42:03.487Z,100647.10
2018-07-14T20:44:31.832Z,100643.61
2018-07-14T20:47:00.079Z,100646.92
2018-07-14T20:49:28.306Z,100646.17
2018-07-14T20:51:56.631Z,100648.14
2018-07-14T20:54:24.912Z,100651.27
2018-07-14T20:56:53.187Z,100655.72
2018-07-14T20:59:21.444Z,100660.20
2018-07-14T21:01:49.694Z,100658.92
2018-07-14T21:04:17.967Z,100655.66
2018-07-14T21:06:46.231Z,100653.72
2018-07-14T21:09:14.468Z,100658.40
2018-07-14T21:11:42.705Z,100657.86
2018-07-14T21:14:10.983Z,100658.74
2018-07-14T21:16:39.229Z,100657.67
2018-07-14T21:19:07.608Z,100662.33
2018-07-14T21:21:35.886Z,100655.84
2018-07-14T21:24:04.074Z,100663.47
2018-07-14T21:26:32.428Z,100662.64
2018-07-14T21:29:00.654Z,100662.12
2018-07-14T21:31:28.910Z,100651.16
2018-07-14T21:33:57.148Z,100657.77
2018-07-14T21:36:25.972Z,100659.73
2018-07-14T21:38:54.913Z,100664.42
2018-07-14T21:41:23.665Z,100667.16
2018-07-14T21:43:52.065Z,100664.41
2018-07-14T21:46:20.230Z,100661.48
2018-07-14T21:48:48.555Z,100669.41
2018-07-14T21:51:17.289Z,100672.69
2018-07-14T21:53:45.479Z,100669.12
2018-07-14T21:56:13.652Z,100671.06
2018-07-14T21:58:41.914Z,100678.45
2018-07-14T22:01:15.518Z,100680.35
2018-07-14T22:03:43.801Z,100685.82
2018-07-14T22:06:12.165Z,100685.28
2018-07-14T22:08:40.422Z,100684.75
2018-07-14T22:11:08.749Z,100681.44
2018-07-14T22:13:37.060Z,100684.22
2018-07-14T22:16:05.330Z,100680.66
2018-07-14T22:18:33.574Z,100678.50
2018-07-14T22:21:01.752Z,100679.04
2018-07-14T22:23:29.932Z,100681.52
2018-07-14T22:25:58.086Z,100677.70
2018-07-14T22:28:26.200Z,100675.80
2018-07-14T22:30:54.279Z,100679.36
2018-07-14T22:33:22.537Z,100682.13
2018-07-14T22:35:50.609Z,100675.03
2018-07-14T22:38:18.732Z,100674.20
2018-07-14T22:40:46.803Z,100680.78
2018-07-14T22:43:14.880Z,100678.33
2018-07-14T22:45:42.951Z,100682.97
2018-07-14T22:48:11.020Z,100679.69
2018-07-14T22:50:39.911Z,100682.42
2018-07-14T22:53:08.005Z,100681.90
2018-07-14T22:55:36.116Z,100673.96
2018-07-14T22:58:04.211Z,100680.49
2018-07-14T23:00:32.303Z,100684.87
2018-07-14T23:03:00.385Z,100679.70
2018-07-14T23:05:28.456Z,100678.59
2018-07-14T23:07:56.536Z,100683.53
2018-07-14T23:10:24.655Z,100682.41
2018-07-14T23:12:52.845Z,100679.43
2018-07-14T23:15:21.051Z,100678.06
2018-07-14T23:17:49.232Z,100682.95
2018-07-14T23:20:17.449Z,100684.89
2018-07-14T23:22:45.618Z,100690.05
2018-07-14T23:25:13.807Z,100683.24
2018-07-14T23:27:42.040Z,100686.23
2018-07-14T23:30:10.352Z,100688.95
2018-07-14T23:32:38.548Z,100686.75
2018-07-14T23:35:06.798Z,100685.41
2018-07-14T23:37:35.108Z,100685.14
2018-07-14T23:40:03.357Z,100689.77
2018-07-14T23:42:31.545Z,100685.94
2018-07-14T23:44:59.732Z,100682.66
2018-07-14T23:47:27.975Z,100683.72
2018-07-14T23:49:56.162Z,100684.80
2018-07-14T23:52:24.339Z,100682.34
2018-07-14T23:54:52.528Z,100679.62
2018-07-14T23:57:20.740Z,100675.21
2018-07-14T23:59:48.917Z,100675.78
